To NAV CANADA Home Page Login to a new session Search on AWWS site Feedback and Comments Disclaimer Vers la page française équivalente Tips FAQ What's new on the site To the Forecasts and Observations / NOTAM section To "File a Flight Plan" website Publications and other links Update of the User's profile FIC Telephone Numbers My Weather Data Folder Route Weather Data Regional Weather Data Local Weather Data To the Forecasts and Observations / NOTAM section
Request Generated 10/07/2015 at 08:21:18 UTC . Weather information available at that time is displayed.



METAR CYHM 070800Z 28006KT 15SM BKN100 11/10 A3004 RMK AC7 SLP175=
METAR CYHM 070700Z 28004KT 15SM FEW084 09/08 A3005 RMK AC1 SLP177=
METAR CYHM 070600Z 26004KT 15SM SKC 10/09 A3005 RMK SLP178=

TAF CYHM 070539Z 0706/0806 24005KT P6SM FEW030
FM070900 24007KT P6SM FEW025 BKN070 PROB30 0709/0713 1/2SM FG
BECMG 0713/0715 26012KT
FM071600 28015KT P6SM BKN030
FM071900 30015KT P6SM FEW040
BECMG 0722/0724 31010KT
BECMG 0801/0803 34005KT
Your time UTC time
Weather data provided by Environment Canada and NAV CANADA